Lantana, FL

7:46 PM EDT on June 03, 2015 (GMT -0400)
Lake Clarke Shores - Caribbean Rd. East | | Change Station
CLOSE
Current Station
Personal Weather Station
Location: Lake Clarke Shores, FL
Elevation: 16 ft
Nearby Weather Stations

Elev 16 ft 26.63 °N, 80.07 °W | Updated 37 seconds ago

Mostly Cloudy
Mostly Cloudy
79.5 °F
Feels Like 83 °F
N
4.0
Wind Variable Wind from NE
Gusts 5.6 mph

Today
High -- | Low -- °F
--% Chance of Precip.
Yesterday
High -- | Low -- °F
Precip. -- in
6:26 AM 8:10 PM
Full, 98% visible
Pressure 29.90 in
Visibility 10.0 miles
Clouds Few 2100 ft
Scattered Clouds 3400 ft
Mostly Cloudy 4400 ft
Heat Index 83 °F
Dew Point 72 °F
Humidity 77%
Rainfall 1.20 in
Snow Depth Not available.
UV 1 out of 12
Pollen .50 out of 12
Air Quality Not available.
Flu Activity Sporadic
METAR KPBI 032253Z 08008KT 10SM FEW021 SCT034 BKN044 26/21 A2990 RMK AO2 SLP125 T02610211 $

More Conditions Fewer Conditions

Pressure 29.90 in
Visibility 10.0 miles
Clouds Few 2100 ft
Scattered Clouds 3400 ft
Mostly Cloudy 4400 ft
Heat Index 83 °F
Dew Point 72 °F
Humidity 77%
Rainfall 1.20 in
Snow Depth Not available.
UV 1 out of 12
Pollen .50 out of 12
Air Quality Not available.
Flu Activity Sporadic
METAR KPBI 032253Z 08008KT 10SM FEW021 SCT034 BKN044 26/21 A2990 RMK AO2 SLP125 T02610211 $

More Conditions Fewer Conditions

10-Day Weather Forecast

×

Almanac

Astronomy

Jun. 03, 2015 Rise Set
Actual Time
Civil Twilight
Nautical Twilight
Astronomical Twilight
Moon
Length of Visible Light
Length of Day
Tomorrow will be .
, % of the Moon is Illuminated

Today's Extremes

State Highs State Lows

Community

WunderPhotos

Upload Photos

1,826,304 photos uploaded!

WunderBlogs® & News

Nearby

Air Quality

  Air Quality AQ Index Pollutant
Not available.

Snow Depth

Station Depth Elevation

Earthquake Activity

City Distance Mag. Time & Date
Minimum magnitude displayed is 2.5.

Coastal Water Temperatures

Place Temperature

Stations

Nearby Weather Stations

Station Location Temp. Windchill Dew Point Humidity Wind Precip. Elev Updated Type